Terminal Aerodrome Forecast
Issued by NWS

Home | Current Version | Previous Version | Text Only | Print | Product List | Glossary On
Versions: 1 2 3 4 5 6 7 8 9 10 11 12 13 14 15
671
FTUS46 KLOX 290536
TAFVNY
TAF
KVNY 290536Z 2906/3006 36015G25KT P6SM SKC
     FM291000 36012G18KT P6SM SKC
     FM291500 02020G30KT P6SM SKC
     FM292100 02015G20KT P6SM SKC
     FM300200 VRB03KT P6SM SKC=

USA.gov is the U.S. government's official web portal to all federal, state and local government web resources and services.